EmailTwitter


Observations de surface / Québec / EGUB

Régions: Québec | Canada | États-Unis | Europe | France | UK | Elsewhere
Station
Affichage
Infos & localisation pour EGUB | Aide pour décoder les METARs

Observations prises le 2017-02-24 à 09H50 UTC à BENSON RAF, UK (EGUB)

Etat du ciel: partiellement nuageux.

Température: 6.0 Celsius

Point de rosée: 0.0 Celsius

Humidité relative: 65%

Facteur vent: 3.

Vents: Ouest-nord-ouest à 17 km/h ou 9 noeuds.

Pression au niveau moyen de la mer: 101.60 kilopascals.

Visibilité horizontale: 6.21 milles terrestres ou 9.94 kilomètres.

Hauteur du plafond: 7620 mètres ( 25000 pieds ).

Observation METAR:

EGUB 240950Z 29009KT 9999 FEW022 BKN250 06/00 Q1016 BLU NOSIG=